sensor_id;sensor_type;location;lat;lon;timestamp;P1;durP1;ratioP1;P2;durP2;ratioP2
58196;SDS011;43999;51.660;5.616;2022-12-04T00:01:24;58.40;;;34.90;;
58196;SDS011;43999;51.660;5.616;2022-12-04T00:03:54;60.78;;;36.55;;
58196;SDS011;43999;51.660;5.616;2022-12-04T00:06:26;63.42;;;37.13;;
58196;SDS011;43999;51.660;5.616;2022-12-04T00:08:54;61.22;;;40.38;;
58196;SDS011;43999;51.660;5.616;2022-12-04T00:11:23;55.90;;;34.22;;
58196;SDS011;43999;51.660;5.616;2022-12-04T00:13:55;52.22;;;36.17;;
58196;SDS011;43999;51.660;5.616;2022-12-04T00:19:01;54.05;;;35.20;;
58196;SDS011;43999;51.660;5.616;2022-12-04T00:21:29;59.47;;;35.95;;
58196;SDS011;43999;51.660;5.616;2022-12-04T00:23:57;59.47;;;36.40;;
58196;SDS011;43999;51.660;5.616;2022-12-04T00:26:25;51.60;;;34.75;;
58196;SDS011;43999;51.660;5.616;2022-12-04T00:28:56;56.67;;;36.70;;
58196;SDS011;43999;51.660;5.616;2022-12-04T00:31:25;51.42;;;32.80;;
58196;SDS011;43999;51.660;5.616;2022-12-04T00:33:55;53.97;;;35.92;;
58196;SDS011;43999;51.660;5.616;2022-12-04T00:36:24;58.55;;;35.63;;
58196;SDS011;43999;51.660;5.616;2022-12-04T00:38:54;57.15;;;37.03;;
58196;SDS011;43999;51.660;5.616;2022-12-04T00:41:25;54.45;;;34.33;;
58196;SDS011;43999;51.660;5.616;2022-12-04T00:43:54;54.10;;;35.78;;
58196;SDS011;43999;51.660;5.616;2022-12-04T00:46:22;55.65;;;36.83;;
58196;SDS011;43999;51.660;5.616;2022-12-04T00:48:50;61.35;;;42.95;;
58196;SDS011;43999;51.660;5.616;2022-12-04T00:51:21;56.55;;;35.13;;
58196;SDS011;43999;51.660;5.616;2022-12-04T00:53:51;53.03;;;34.67;;
58196;SDS011;43999;51.660;5.616;2022-12-04T00:56:20;46.38;;;35.38;;
58196;SDS011;43999;51.660;5.616;2022-12-04T00:58:51;51.85;;;34.00;;
58196;SDS011;43999;51.660;5.616;2022-12-04T01:01:24;55.95;;;36.85;;
58196;SDS011;43999;51.660;5.616;2022-12-04T01:03:54;53.70;;;36.60;;
58196;SDS011;43999;51.660;5.616;2022-12-04T01:06:24;52.90;;;34.13;;
58196;SDS011;43999;51.660;5.616;2022-12-04T01:08:55;55.67;;;35.80;;
58196;SDS011;43999;51.660;5.616;2022-12-04T01:11:26;55.65;;;35.97;;
58196;SDS011;43999;51.660;5.616;2022-12-04T01:13:56;62.15;;;39.10;;
58196;SDS011;43999;51.660;5.616;2022-12-04T01:16:27;62.60;;;38.15;;
58196;SDS011;43999;51.660;5.616;2022-12-04T01:19:02;54.72;;;36.80;;
58196;SDS011;43999;51.660;5.616;2022-12-04T01:21:33;55.80;;;35.47;;
58196;SDS011;43999;51.660;5.616;2022-12-04T01:24:02;50.83;;;37.03;;
58196;SDS011;43999;51.660;5.616;2022-12-04T01:26:31;58.53;;;37.63;;
58196;SDS011;43999;51.660;5.616;2022-12-04T01:28:59;51.13;;;31.02;;
58196;SDS011;43999;51.660;5.616;2022-12-04T01:31:27;54.70;;;36.17;;
58196;SDS011;43999;51.660;5.616;2022-12-04T01:33:54;54.30;;;37.50;;
58196;SDS011;43999;51.660;5.616;2022-12-04T01:36:23;53.72;;;37.28;;
58196;SDS011;43999;51.660;5.616;2022-12-04T01:38:53;53.55;;;36.60;;
58196;SDS011;43999;51.660;5.616;2022-12-04T01:41:23;55.83;;;33.20;;
58196;SDS011;43999;51.660;5.616;2022-12-04T01:46:48;57.80;;;36.95;;
58196;SDS011;43999;51.660;5.616;2022-12-04T01:49:28;50.28;;;35.63;;
58196;SDS011;43999;51.660;5.616;2022-12-04T01:52:21;55.92;;;37.45;;
58196;SDS011;43999;51.660;5.616;2022-12-04T01:54:55;68.32;;;39.15;;
58196;SDS011;43999;51.660;5.616;2022-12-04T01:57:27;58.25;;;36.65;;
58196;SDS011;43999;51.660;5.616;2022-12-04T02:00:01;54.25;;;33.88;;
58196;SDS011;43999;51.660;5.616;2022-12-04T02:02:40;63.88;;;39.70;;
58196;SDS011;43999;51.660;5.616;2022-12-04T02:05:12;54.88;;;36.22;;
58196;SDS011;43999;51.660;5.616;2022-12-04T02:07:45;61.58;;;40.50;;
58196;SDS011;43999;51.660;5.616;2022-12-04T02:10:16;59.83;;;39.08;;
58196;SDS011;43999;51.660;5.616;2022-12-04T02:12:52;60.88;;;41.40;;
58196;SDS011;43999;51.660;5.616;2022-12-04T02:15:33;62.20;;;40.33;;
58196;SDS011;43999;51.660;5.616;2022-12-04T02:18:38;55.10;;;35.55;;
58196;SDS011;43999;51.660;5.616;2022-12-04T02:29:58;54.70;;;35.75;;
58196;SDS011;43999;51.660;5.616;2022-12-04T02:35:28;53.22;;;33.47;;
58196;SDS011;43999;51.660;5.616;2022-12-04T02:38:13;62.03;;;41.03;;
58196;SDS011;43999;51.660;5.616;2022-12-04T02:40:59;60.55;;;38.53;;
58196;SDS011;43999;51.660;5.616;2022-12-04T02:43:41;48.60;;;35.65;;
58196;SDS011;43999;51.660;5.616;2022-12-04T02:48:58;48.95;;;34.40;;
58196;SDS011;43999;51.660;5.616;2022-12-04T02:51:31;58.70;;;37.72;;
58196;SDS011;43999;51.660;5.616;2022-12-04T02:54:13;57.15;;;36.05;;
58196;SDS011;43999;51.660;5.616;2022-12-04T02:56:51;58.33;;;38.15;;
58196;SDS011;43999;51.660;5.616;2022-12-04T02:59:22;53.97;;;38.70;;
58196;SDS011;43999;51.660;5.616;2022-12-04T03:02:08;57.30;;;35.80;;
58196;SDS011;43999;51.660;5.616;2022-12-04T03:07:21;56.78;;;37.83;;
58196;SDS011;43999;51.660;5.616;2022-12-04T03:10:16;61.65;;;38.03;;
58196;SDS011;43999;51.660;5.616;2022-12-04T03:13:00;54.35;;;38.42;;
58196;SDS011;43999;51.660;5.616;2022-12-04T03:15:44;57.03;;;36.72;;
58196;SDS011;43999;51.660;5.616;2022-12-04T03:18:27;59.28;;;37.58;;
58196;SDS011;43999;51.660;5.616;2022-12-04T03:21:11;64.72;;;40.88;;
58196;SDS011;43999;51.660;5.616;2022-12-04T03:23:58;53.33;;;37.10;;
58196;SDS011;43999;51.660;5.616;2022-12-04T03:26:59;61.65;;;41.58;;
58196;SDS011;43999;51.660;5.616;2022-12-04T03:29:53;53.55;;;35.90;;
58196;SDS011;43999;51.660;5.616;2022-12-04T03:32:44;51.75;;;34.50;;
58196;SDS011;43999;51.660;5.616;2022-12-04T03:35:41;53.00;;;35.50;;
58196;SDS011;43999;51.660;5.616;2022-12-04T03:41:39;57.28;;;35.83;;
58196;SDS011;43999;51.660;5.616;2022-12-04T03:44:37;54.53;;;38.88;;
58196;SDS011;43999;51.660;5.616;2022-12-04T03:47:31;58.22;;;42.75;;
58196;SDS011;43999;51.660;5.616;2022-12-04T03:58:57;62.55;;;41.53;;
58196;SDS011;43999;51.660;5.616;2022-12-04T04:01:38;55.03;;;32.40;;
58196;SDS011;43999;51.660;5.616;2022-12-04T04:04:18;58.95;;;40.05;;
58196;SDS011;43999;51.660;5.616;2022-12-04T04:06:56;61.33;;;39.58;;
58196;SDS011;43999;51.660;5.616;2022-12-04T04:09:38;56.38;;;37.78;;
58196;SDS011;43999;51.660;5.616;2022-12-04T04:12:13;68.95;;;43.95;;
58196;SDS011;43999;51.660;5.616;2022-12-04T04:14:49;65.13;;;43.85;;
58196;SDS011;43999;51.660;5.616;2022-12-04T04:17:43;72.20;;;39.25;;
58196;SDS011;43999;51.660;5.616;2022-12-04T04:20:42;59.78;;;37.22;;
58196;SDS011;43999;51.660;5.616;2022-12-04T04:23:42;63.92;;;39.63;;
58196;SDS011;43999;51.660;5.616;2022-12-04T04:26:38;63.45;;;40.55;;
58196;SDS011;43999;51.660;5.616;2022-12-04T04:29:12;54.35;;;38.85;;
58196;SDS011;43999;51.660;5.616;2022-12-04T04:31:56;54.65;;;37.03;;
58196;SDS011;43999;51.660;5.616;2022-12-04T04:37:31;62.13;;;37.75;;
58196;SDS011;43999;51.660;5.616;2022-12-04T04:40:26;59.45;;;36.95;;
58196;SDS011;43999;51.660;5.616;2022-12-04T04:45:57;57.63;;;35.97;;
58196;SDS011;43999;51.660;5.616;2022-12-04T04:48:57;52.50;;;37.25;;
58196;SDS011;43999;51.660;5.616;2022-12-04T04:51:30;57.63;;;35.90;;
58196;SDS011;43999;51.660;5.616;2022-12-04T04:54:02;61.45;;;37.03;;
58196;SDS011;43999;51.660;5.616;2022-12-04T04:56:39;55.30;;;37.17;;
58196;SDS011;43999;51.660;5.616;2022-12-04T04:59:10;60.60;;;38.42;;
58196;SDS011;43999;51.660;5.616;2022-12-04T05:01:40;57.55;;;37.75;;
58196;SDS011;43999;51.660;5.616;2022-12-04T05:04:11;54.67;;;37.40;;
58196;SDS011;43999;51.660;5.616;2022-12-04T05:06:40;52.95;;;36.50;;
58196;SDS011;43999;51.660;5.616;2022-12-04T05:09:07;57.92;;;37.30;;
58196;SDS011;43999;51.660;5.616;2022-12-04T05:11:35;58.28;;;36.78;;
58196;SDS011;43999;51.660;5.616;2022-12-04T05:14:02;61.17;;;40.15;;
58196;SDS011;43999;51.660;5.616;2022-12-04T05:16:33;67.53;;;42.22;;
58196;SDS011;43999;51.660;5.616;2022-12-04T05:19:01;62.45;;;36.88;;
58196;SDS011;43999;51.660;5.616;2022-12-04T05:21:47;53.75;;;35.50;;
58196;SDS011;43999;51.660;5.616;2022-12-04T05:24:15;66.35;;;41.28;;
58196;SDS011;43999;51.660;5.616;2022-12-04T05:26:42;55.58;;;38.13;;
58196;SDS011;43999;51.660;5.616;2022-12-04T05:29:09;55.08;;;36.05;;
58196;SDS011;43999;51.660;5.616;2022-12-04T05:31:37;58.47;;;40.10;;
58196;SDS011;43999;51.660;5.616;2022-12-04T05:34:05;65.15;;;38.13;;
58196;SDS011;43999;51.660;5.616;2022-12-04T05:36:32;53.90;;;38.42;;
58196;SDS011;43999;51.660;5.616;2022-12-04T05:38:59;54.58;;;36.47;;
58196;SDS011;43999;51.660;5.616;2022-12-04T05:41:27;58.17;;;40.05;;
58196;SDS011;43999;51.660;5.616;2022-12-04T05:43:54;56.80;;;39.83;;
58196;SDS011;43999;51.660;5.616;2022-12-04T05:46:22;55.50;;;36.15;;
58196;SDS011;43999;51.660;5.616;2022-12-04T05:48:49;60.25;;;37.22;;
58196;SDS011;43999;51.660;5.616;2022-12-04T05:51:17;60.20;;;39.45;;
58196;SDS011;43999;51.660;5.616;2022-12-04T05:53:44;58.55;;;38.55;;
58196;SDS011;43999;51.660;5.616;2022-12-04T05:56:12;57.22;;;39.35;;
58196;SDS011;43999;51.660;5.616;2022-12-04T05:58:40;58.85;;;35.50;;
58196;SDS011;43999;51.660;5.616;2022-12-04T06:01:08;59.17;;;39.33;;
58196;SDS011;43999;51.660;5.616;2022-12-04T06:03:40;50.67;;;38.50;;
58196;SDS011;43999;51.660;5.616;2022-12-04T06:06:12;55.13;;;35.38;;
58196;SDS011;43999;51.660;5.616;2022-12-04T06:08:50;63.75;;;39.85;;
58196;SDS011;43999;51.660;5.616;2022-12-04T06:11:27;56.55;;;38.50;;
58196;SDS011;43999;51.660;5.616;2022-12-04T06:13:58;58.38;;;38.38;;
58196;SDS011;43999;51.660;5.616;2022-12-04T06:16:29;59.90;;;39.65;;
58196;SDS011;43999;51.660;5.616;2022-12-04T06:19:05;62.45;;;38.67;;
58196;SDS011;43999;51.660;5.616;2022-12-04T06:21:37;57.38;;;36.65;;
58196;SDS011;43999;51.660;5.616;2022-12-04T06:24:09;56.45;;;36.67;;
58196;SDS011;43999;51.660;5.616;2022-12-04T06:26:42;57.17;;;35.42;;
58196;SDS011;43999;51.660;5.616;2022-12-04T06:29:30;59.83;;;35.78;;
58196;SDS011;43999;51.660;5.616;2022-12-04T06:31:58;59.05;;;34.78;;
58196;SDS011;43999;51.660;5.616;2022-12-04T06:34:25;57.03;;;37.17;;
58196;SDS011;43999;51.660;5.616;2022-12-04T06:36:53;50.47;;;36.65;;
58196;SDS011;43999;51.660;5.616;2022-12-04T06:39:20;51.92;;;34.53;;
58196;SDS011;43999;51.660;5.616;2022-12-04T06:41:48;48.95;;;33.42;;
58196;SDS011;43999;51.660;5.616;2022-12-04T06:44:16;56.22;;;35.90;;
58196;SDS011;43999;51.660;5.616;2022-12-04T06:46:43;52.42;;;35.35;;
58196;SDS011;43999;51.660;5.616;2022-12-04T06:49:13;42.65;;;30.90;;
58196;SDS011;43999;51.660;5.616;2022-12-04T06:51:40;54.20;;;35.03;;
58196;SDS011;43999;51.660;5.616;2022-12-04T06:54:08;50.28;;;36.28;;
58196;SDS011;43999;51.660;5.616;2022-12-04T06:56:38;56.65;;;39.78;;
58196;SDS011;43999;51.660;5.616;2022-12-04T06:59:06;52.63;;;36.78;;
58196;SDS011;43999;51.660;5.616;2022-12-04T07:01:33;48.10;;;30.38;;
58196;SDS011;43999;51.660;5.616;2022-12-04T07:04:02;50.97;;;32.90;;
58196;SDS011;43999;51.660;5.616;2022-12-04T07:06:32;49.03;;;34.15;;
58196;SDS011;43999;51.660;5.616;2022-12-04T07:09:04;46.88;;;33.35;;
58196;SDS011;43999;51.660;5.616;2022-12-04T07:11:38;45.70;;;32.05;;
58196;SDS011;43999;51.660;5.616;2022-12-04T07:14:07;48.22;;;33.38;;
58196;SDS011;43999;51.660;5.616;2022-12-04T07:16:35;46.88;;;32.60;;
58196;SDS011;43999;51.660;5.616;2022-12-04T07:19:11;47.42;;;32.13;;
58196;SDS011;43999;51.660;5.616;2022-12-04T07:21:40;47.97;;;33.55;;
58196;SDS011;43999;51.660;5.616;2022-12-04T07:24:10;49.55;;;32.55;;
58196;SDS011;43999;51.660;5.616;2022-12-04T07:26:42;46.75;;;30.95;;
58196;SDS011;43999;51.660;5.616;2022-12-04T07:29:10;43.75;;;31.48;;
58196;SDS011;43999;51.660;5.616;2022-12-04T07:31:37;50.20;;;31.67;;
58196;SDS011;43999;51.660;5.616;2022-12-04T07:34:05;48.92;;;33.40;;
58196;SDS011;43999;51.660;5.616;2022-12-04T07:36:33;42.33;;;31.95;;
58196;SDS011;43999;51.660;5.616;2022-12-04T07:39:00;49.67;;;30.65;;
58196;SDS011;43999;51.660;5.616;2022-12-04T07:41:28;44.58;;;31.42;;
58196;SDS011;43999;51.660;5.616;2022-12-04T07:43:57;52.88;;;33.47;;
58196;SDS011;43999;51.660;5.616;2022-12-04T07:46:25;47.70;;;32.70;;
58196;SDS011;43999;51.660;5.616;2022-12-04T07:48:57;46.30;;;33.10;;
58196;SDS011;43999;51.660;5.616;2022-12-04T07:51:26;46.97;;;31.35;;
58196;SDS011;43999;51.660;5.616;2022-12-04T07:53:55;40.70;;;30.73;;
58196;SDS011;43999;51.660;5.616;2022-12-04T07:56:29;45.38;;;31.60;;
58196;SDS011;43999;51.660;5.616;2022-12-04T07:58:58;48.55;;;29.75;;
58196;SDS011;43999;51.660;5.616;2022-12-04T08:01:26;41.38;;;31.00;;
58196;SDS011;43999;51.660;5.616;2022-12-04T08:03:55;44.30;;;30.42;;
58196;SDS011;43999;51.660;5.616;2022-12-04T08:06:25;46.08;;;31.52;;
58196;SDS011;43999;51.660;5.616;2022-12-04T08:08:56;44.88;;;30.98;;
58196;SDS011;43999;51.660;5.616;2022-12-04T08:11:27;45.80;;;29.48;;
58196;SDS011;43999;51.660;5.616;2022-12-04T08:13:55;42.95;;;29.33;;
58196;SDS011;43999;51.660;5.616;2022-12-04T08:16:29;40.97;;;29.70;;
58196;SDS011;43999;51.660;5.616;2022-12-04T08:18:58;45.80;;;31.35;;
58196;SDS011;43999;51.660;5.616;2022-12-04T08:21:27;46.30;;;30.35;;
58196;SDS011;43999;51.660;5.616;2022-12-04T08:23:57;45.00;;;30.40;;
58196;SDS011;43999;51.660;5.616;2022-12-04T08:26:27;38.15;;;27.95;;
58196;SDS011;43999;51.660;5.616;2022-12-04T08:28:56;48.13;;;30.45;;
58196;SDS011;43999;51.660;5.616;2022-12-04T08:31:27;41.72;;;31.85;;
58196;SDS011;43999;51.660;5.616;2022-12-04T08:33:58;38.42;;;25.10;;
58196;SDS011;43999;51.660;5.616;2022-12-04T08:36:29;45.80;;;28.20;;
58196;SDS011;43999;51.660;5.616;2022-12-04T08:38:57;38.97;;;27.52;;
58196;SDS011;43999;51.660;5.616;2022-12-04T08:41:25;40.05;;;27.23;;
58196;SDS011;43999;51.660;5.616;2022-12-04T08:43:53;42.42;;;26.83;;
58196;SDS011;43999;51.660;5.616;2022-12-04T08:46:22;39.65;;;25.05;;
58196;SDS011;43999;51.660;5.616;2022-12-04T08:48:52;37.67;;;26.35;;
58196;SDS011;43999;51.660;5.616;2022-12-04T08:51:21;44.75;;;28.95;;
58196;SDS011;43999;51.660;5.616;2022-12-04T08:53:53;39.25;;;26.73;;
58196;SDS011;43999;51.660;5.616;2022-12-04T08:56:25;36.17;;;25.98;;
58196;SDS011;43999;51.660;5.616;2022-12-04T08:58:56;36.00;;;25.00;;
58196;SDS011;43999;51.660;5.616;2022-12-04T09:01:26;36.75;;;27.38;;
58196;SDS011;43999;51.660;5.616;2022-12-04T09:03:55;36.30;;;25.58;;
58196;SDS011;43999;51.660;5.616;2022-12-04T09:06:23;36.53;;;26.67;;
58196;SDS011;43999;51.660;5.616;2022-12-04T09:08:51;35.95;;;23.98;;
58196;SDS011;43999;51.660;5.616;2022-12-04T09:11:21;39.08;;;27.10;;
58196;SDS011;43999;51.660;5.616;2022-12-04T09:13:52;35.03;;;24.73;;
58196;SDS011;43999;51.660;5.616;2022-12-04T09:16:21;38.92;;;29.10;;
58196;SDS011;43999;51.660;5.616;2022-12-04T09:18:51;29.25;;;24.65;;
58196;SDS011;43999;51.660;5.616;2022-12-04T09:21:20;31.63;;;23.90;;
58196;SDS011;43999;51.660;5.616;2022-12-04T09:23:50;32.58;;;21.83;;
58196;SDS011;43999;51.660;5.616;2022-12-04T09:26:19;35.40;;;25.08;;
58196;SDS011;43999;51.660;5.616;2022-12-04T09:28:50;34.88;;;25.33;;
58196;SDS011;43999;51.660;5.616;2022-12-04T09:31:20;28.33;;;22.27;;
58196;SDS011;43999;51.660;5.616;2022-12-04T09:33:49;26.17;;;19.00;;
58196;SDS011;43999;51.660;5.616;2022-12-04T09:36:17;27.60;;;20.42;;
58196;SDS011;43999;51.660;5.616;2022-12-04T09:38:47;31.52;;;20.40;;
58196;SDS011;43999;51.660;5.616;2022-12-04T09:52:39;32.45;;;20.83;;
58196;SDS011;43999;51.660;5.616;2022-12-04T09:55:28;33.70;;;22.08;;
58196;SDS011;43999;51.660;5.616;2022-12-04T09:58:21;30.73;;;21.27;;
58196;SDS011;43999;51.660;5.616;2022-12-04T10:01:22;26.92;;;20.10;;
58196;SDS011;43999;51.660;5.616;2022-12-04T10:03:55;30.73;;;21.00;;
58196;SDS011;43999;51.660;5.616;2022-12-04T10:06:35;29.90;;;21.80;;
58196;SDS011;43999;51.660;5.616;2022-12-04T10:09:17;28.15;;;22.40;;
58196;SDS011;43999;51.660;5.616;2022-12-04T10:20:59;33.28;;;23.73;;
58196;SDS011;43999;51.660;5.616;2022-12-04T10:23:53;31.25;;;21.45;;
58196;SDS011;43999;51.660;5.616;2022-12-04T10:26:43;29.58;;;20.13;;
58196;SDS011;43999;51.660;5.616;2022-12-04T10:29:21;25.65;;;22.73;;
58196;SDS011;43999;51.660;5.616;2022-12-04T10:31:56;32.80;;;22.33;;
58196;SDS011;43999;51.660;5.616;2022-12-04T10:34:53;25.75;;;17.73;;
58196;SDS011;43999;51.660;5.616;2022-12-04T10:37:43;27.88;;;19.85;;
58196;SDS011;43999;51.660;5.616;2022-12-04T10:40:22;35.53;;;20.90;;
58196;SDS011;43999;51.660;5.616;2022-12-04T10:43:04;29.88;;;20.27;;
58196;SDS011;43999;51.660;5.616;2022-12-04T10:45:51;24.38;;;19.10;;
58196;SDS011;43999;51.660;5.616;2022-12-04T10:48:23;33.03;;;24.35;;
58196;SDS011;43999;51.660;5.616;2022-12-04T10:51:07;27.90;;;20.50;;
58196;SDS011;43999;51.660;5.616;2022-12-04T10:53:41;31.30;;;22.00;;
58196;SDS011;43999;51.660;5.616;2022-12-04T10:56:15;30.88;;;21.63;;
58196;SDS011;43999;51.660;5.616;2022-12-04T10:58:56;32.40;;;22.48;;
58196;SDS011;43999;51.660;5.616;2022-12-04T11:01:31;28.98;;;20.50;;
58196;SDS011;43999;51.660;5.616;2022-12-04T11:04:02;28.42;;;22.42;;
58196;SDS011;43999;51.660;5.616;2022-12-04T11:06:43;30.45;;;21.33;;
58196;SDS011;43999;51.660;5.616;2022-12-04T11:09:20;32.85;;;22.88;;
58196;SDS011;43999;51.660;5.616;2022-12-04T11:14:19;25.48;;;19.42;;
58196;SDS011;43999;51.660;5.616;2022-12-04T11:16:58;26.48;;;20.10;;
58196;SDS011;43999;51.660;5.616;2022-12-04T11:19:31;29.58;;;20.27;;
58196;SDS011;43999;51.660;5.616;2022-12-04T11:22:10;27.25;;;20.70;;
58196;SDS011;43999;51.660;5.616;2022-12-04T11:24:57;27.67;;;19.58;;
58196;SDS011;43999;51.660;5.616;2022-12-04T11:27:29;27.55;;;19.67;;
58196;SDS011;43999;51.660;5.616;2022-12-04T11:30:01;22.73;;;18.48;;
58196;SDS011;43999;51.660;5.616;2022-12-04T11:32:38;25.70;;;19.17;;
58196;SDS011;43999;51.660;5.616;2022-12-04T11:35:12;25.83;;;20.30;;
58196;SDS011;43999;51.660;5.616;2022-12-04T11:37:54;23.42;;;19.95;;
58196;SDS011;43999;51.660;5.616;2022-12-04T11:40:28;27.60;;;19.08;;
58196;SDS011;43999;51.660;5.616;2022-12-04T11:45:39;24.98;;;18.67;;
58196;SDS011;43999;51.660;5.616;2022-12-04T11:48:19;22.60;;;20.17;;
58196;SDS011;43999;51.660;5.616;2022-12-04T11:51:12;26.17;;;21.70;;
58196;SDS011;43999;51.660;5.616;2022-12-04T11:57:08;25.35;;;19.50;;
58196;SDS011;43999;51.660;5.616;2022-12-04T12:23:07;26.75;;;21.42;;
58196;SDS011;43999;51.660;5.616;2022-12-04T12:26:15;23.52;;;16.20;;
58196;SDS011;43999;51.660;5.616;2022-12-04T12:36:57;28.92;;;20.40;;
58196;SDS011;43999;51.660;5.616;2022-12-04T12:39:49;22.33;;;17.90;;
58196;SDS011;43999;51.660;5.616;2022-12-04T12:42:43;24.33;;;19.77;;
58196;SDS011;43999;51.660;5.616;2022-12-04T12:51:32;24.17;;;20.33;;
58196;SDS011;43999;51.660;5.616;2022-12-04T12:57:23;23.17;;;19.13;;
58196;SDS011;43999;51.660;5.616;2022-12-04T13:00:17;25.92;;;18.83;;
58196;SDS011;43999;51.660;5.616;2022-12-04T13:02:50;28.25;;;18.50;;
58196;SDS011;43999;51.660;5.616;2022-12-04T13:05:51;25.20;;;19.05;;
58196;SDS011;43999;51.660;5.616;2022-12-04T13:08:39;24.73;;;17.88;;
58196;SDS011;43999;51.660;5.616;2022-12-04T13:11:42;23.23;;;18.50;;
58196;SDS011;43999;51.660;5.616;2022-12-04T13:14:15;25.95;;;17.85;;
58196;SDS011;43999;51.660;5.616;2022-12-04T13:16:47;31.23;;;18.83;;
58196;SDS011;43999;51.660;5.616;2022-12-04T13:19:25;25.20;;;18.95;;
58196;SDS011;43999;51.660;5.616;2022-12-04T13:25:14;24.63;;;19.08;;
58196;SDS011;43999;51.660;5.616;2022-12-04T13:37:07;28.90;;;22.55;;
58196;SDS011;43999;51.660;5.616;2022-12-04T13:42:50;24.45;;;18.13;;
58196;SDS011;43999;51.660;5.616;2022-12-04T13:45:24;23.50;;;19.13;;
58196;SDS011;43999;51.660;5.616;2022-12-04T13:47:59;22.08;;;19.73;;
58196;SDS011;43999;51.660;5.616;2022-12-04T13:50:35;21.60;;;17.05;;
58196;SDS011;43999;51.660;5.616;2022-12-04T13:53:05;25.20;;;20.20;;
58196;SDS011;43999;51.660;5.616;2022-12-04T13:55:57;25.63;;;18.40;;
58196;SDS011;43999;51.660;5.616;2022-12-04T13:58:34;20.73;;;17.98;;
58196;SDS011;43999;51.660;5.616;2022-12-04T14:01:04;26.77;;;19.45;;
58196;SDS011;43999;51.660;5.616;2022-12-04T14:03:50;23.48;;;19.02;;
58196;SDS011;43999;51.660;5.616;2022-12-04T14:06:25;24.00;;;18.88;;
58196;SDS011;43999;51.660;5.616;2022-12-04T14:09:17;24.98;;;17.10;;
58196;SDS011;43999;51.660;5.616;2022-12-04T14:11:53;24.63;;;17.60;;
58196;SDS011;43999;51.660;5.616;2022-12-04T14:14:28;20.48;;;16.90;;
58196;SDS011;43999;51.660;5.616;2022-12-04T14:17:27;26.67;;;17.67;;
58196;SDS011;43999;51.660;5.616;2022-12-04T14:20:06;21.85;;;17.67;;
58196;SDS011;43999;51.660;5.616;2022-12-04T14:22:52;20.35;;;16.20;;
58196;SDS011;43999;51.660;5.616;2022-12-04T14:25:22;29.80;;;19.45;;
58196;SDS011;43999;51.660;5.616;2022-12-04T14:31:35;22.48;;;18.45;;
58196;SDS011;43999;51.660;5.616;2022-12-04T14:33:43;23.70;;;18.65;;
58196;SDS011;43999;51.660;5.616;2022-12-04T14:36:47;22.52;;;19.02;;
58196;SDS011;43999;51.660;5.616;2022-12-04T14:42:05;22.40;;;16.80;;
58196;SDS011;43999;51.660;5.616;2022-12-04T14:44:56;23.08;;;20.67;;
58196;SDS011;43999;51.660;5.616;2022-12-04T15:00:10;21.85;;;17.42;;
58196;SDS011;43999;51.660;5.616;2022-12-04T15:02:37;22.00;;;17.08;;
58196;SDS011;43999;51.660;5.616;2022-12-04T15:05:08;22.75;;;17.92;;
58196;SDS011;43999;51.660;5.616;2022-12-04T15:07:46;20.30;;;16.73;;
58196;SDS011;43999;51.660;5.616;2022-12-04T15:10:23;24.05;;;17.77;;
58196;SDS011;43999;51.660;5.616;2022-12-04T15:13:12;26.85;;;19.55;;
58196;SDS011;43999;51.660;5.616;2022-12-04T15:18:53;23.42;;;18.13;;
58196;SDS011;43999;51.660;5.616;2022-12-04T15:21:23;20.23;;;15.57;;
58196;SDS011;43999;51.660;5.616;2022-12-04T15:24:08;25.73;;;18.58;;
58196;SDS011;43999;51.660;5.616;2022-12-04T15:26:46;21.65;;;17.95;;
58196;SDS011;43999;51.660;5.616;2022-12-04T15:29:19;25.67;;;18.30;;
58196;SDS011;43999;51.660;5.616;2022-12-04T15:31:53;24.40;;;18.43;;
58196;SDS011;43999;51.660;5.616;2022-12-04T15:37:25;20.70;;;16.83;;
58196;SDS011;43999;51.660;5.616;2022-12-04T15:39:56;21.40;;;17.20;;
58196;SDS011;43999;51.660;5.616;2022-12-04T15:42:26;24.05;;;19.42;;
58196;SDS011;43999;51.660;5.616;2022-12-04T15:44:57;23.52;;;19.05;;
58196;SDS011;43999;51.660;5.616;2022-12-04T15:47:49;24.83;;;18.55;;
58196;SDS011;43999;51.660;5.616;2022-12-04T15:50:21;23.15;;;17.70;;
58196;SDS011;43999;51.660;5.616;2022-12-04T15:55:45;20.00;;;16.33;;
58196;SDS011;43999;51.660;5.616;2022-12-04T15:58:25;23.73;;;20.42;;
58196;SDS011;43999;51.660;5.616;2022-12-04T16:01:04;23.33;;;18.60;;
58196;SDS011;43999;51.660;5.616;2022-12-04T16:08:45;20.30;;;17.75;;
58196;SDS011;43999;51.660;5.616;2022-12-04T16:12:02;23.67;;;18.30;;
58196;SDS011;43999;51.660;5.616;2022-12-04T16:14:51;31.05;;;22.27;;
58196;SDS011;43999;51.660;5.616;2022-12-04T16:17:28;24.83;;;18.73;;
58196;SDS011;43999;51.660;5.616;2022-12-04T16:19:59;26.40;;;18.52;;
58196;SDS011;43999;51.660;5.616;2022-12-04T16:22:31;25.52;;;20.92;;
58196;SDS011;43999;51.660;5.616;2022-12-04T16:24:58;24.85;;;19.65;;
58196;SDS011;43999;51.660;5.616;2022-12-04T16:27:26;27.23;;;21.30;;
58196;SDS011;43999;51.660;5.616;2022-12-04T16:29:53;27.63;;;21.45;;
58196;SDS011;43999;51.660;5.616;2022-12-04T16:32:22;25.85;;;22.15;;
58196;SDS011;43999;51.660;5.616;2022-12-04T16:34:57;31.83;;;23.73;;
58196;SDS011;43999;51.660;5.616;2022-12-04T16:37:25;30.88;;;23.05;;
58196;SDS011;43999;51.660;5.616;2022-12-04T16:39:55;30.30;;;23.25;;
58196;SDS011;43999;51.660;5.616;2022-12-04T16:42:24;30.30;;;23.77;;
58196;SDS011;43999;51.660;5.616;2022-12-04T16:44:55;32.38;;;22.13;;
58196;SDS011;43999;51.660;5.616;2022-12-04T16:47:23;24.58;;;21.13;;
58196;SDS011;43999;51.660;5.616;2022-12-04T16:49:51;33.63;;;23.33;;
58196;SDS011;43999;51.660;5.616;2022-12-04T16:52:19;34.25;;;24.17;;
58196;SDS011;43999;51.660;5.616;2022-12-04T16:54:47;27.13;;;21.73;;
58196;SDS011;43999;51.660;5.616;2022-12-04T16:57:14;31.13;;;24.85;;
58196;SDS011;43999;51.660;5.616;2022-12-04T16:59:42;31.60;;;22.67;;
58196;SDS011;43999;51.660;5.616;2022-12-04T17:02:13;31.52;;;23.65;;
58196;SDS011;43999;51.660;5.616;2022-12-04T17:04:48;34.10;;;22.98;;
58196;SDS011;43999;51.660;5.616;2022-12-04T17:07:23;31.05;;;23.42;;
58196;SDS011;43999;51.660;5.616;2022-12-04T17:09:50;30.75;;;23.42;;
58196;SDS011;43999;51.660;5.616;2022-12-04T17:12:17;31.80;;;24.70;;
58196;SDS011;43999;51.660;5.616;2022-12-04T17:14:45;33.83;;;25.13;;
58196;SDS011;43999;51.660;5.616;2022-12-04T17:17:12;40.35;;;29.08;;
58196;SDS011;43999;51.660;5.616;2022-12-04T17:19:39;35.08;;;24.98;;
58196;SDS011;43999;51.660;5.616;2022-12-04T17:22:07;29.08;;;22.55;;
58196;SDS011;43999;51.660;5.616;2022-12-04T17:24:34;32.08;;;25.02;;
58196;SDS011;43999;51.660;5.616;2022-12-04T17:27:11;30.83;;;22.20;;
58196;SDS011;43999;51.660;5.616;2022-12-04T17:29:39;30.92;;;22.95;;
58196;SDS011;43999;51.660;5.616;2022-12-04T17:32:07;39.47;;;26.67;;
58196;SDS011;43999;51.660;5.616;2022-12-04T17:34:34;32.05;;;23.45;;
58196;SDS011;43999;51.660;5.616;2022-12-04T17:37:02;34.55;;;24.92;;
58196;SDS011;43999;51.660;5.616;2022-12-04T17:39:30;29.48;;;23.75;;
58196;SDS011;43999;51.660;5.616;2022-12-04T17:41:57;38.22;;;28.35;;
58196;SDS011;43999;51.660;5.616;2022-12-04T17:44:25;34.15;;;22.83;;